• Join FlightAware (Why Join?)
  • Login
  • US Flag 
 
01:25PM EST


 

Airport Tracker/Info


-or-


 

Live Flight TrackerFlight Track Log ✈ N137TK ✈ 01-May-2013 ✈ KDKX - KAVL

Flight Track Log - Related Links

Times and Time Zones

All times are in EDT time to prevent confusion due to time zone crossing. See the N137TK flight status page for this flight to view local times or setup timezone preferences in your user account.

Time Position Orientation Groundspeed Altitude Reporting Facility
EDT Latitude Longitude Course Direction KTS MPH feet Rate Location/Type
04:41PM 35.8389 -83.5533 116° Southeast  Level Estimated
04:42PM 35.8180 -83.5000 116° Southeast  Level Estimated
04:43PM 35.7971 -83.4468 116° Southeast  Level Estimated
04:44PM 35.7761 -83.3935 116° Southeast  Level Estimated
04:45PM 35.7551 -83.3403 116° Southeast  Level Estimated
04:46PM 35.7341 -83.2871 116° Southeast  Level Estimated
04:47PM 35.7131 -83.2340 116° Southeast  Level Estimated
04:48PM 35.6921 -83.1809 116° Southeast  Level Estimated
04:49PM 35.6710 -83.1278 116° Southeast  Level Estimated
04:50PM 35.6499 -83.0747 116° Southeast  Level Estimated
04:51PM 35.6288 -83.0217 116° Southeast  Level Estimated
04:52PM 35.6077 -82.9687 116° Southeast  Level Estimated
04:53PM 35.5865 -82.9157 116° Southeast  Level Estimated
04:54PM 35.5653 -82.8627 116° Southeast  Level Estimated
04:55PM 35.5441 -82.8098 116° Southeast  Level Estimated
04:56PM 35.5229 -82.7569 116° Southeast  Level Estimated
04:57PM 35.5016 -82.7040 116° Southeast  Level Estimated
04:58PM 35.4803 -82.6512 116° Southeast  Level Estimated
04:59PM 35.4590 -82.5984 116° Southeast  Level Estimated
05:00PM 35.4377 -82.5456 116° Southeast  Level Estimated
05:01PM 35.4362 -82.5418 116° Southeast  Level Estimated
05:02PM 35.4362 -82.5418 39° Northeast  Level Estimated
05:03PM 35.4362 -82.5418 39° Northeast  Level Estimated
05:04PM 35.4362 -82.5418 39° Northeast  Level Estimated
05:05PM 35.4362 -82.5418 39° Northeast  Level Estimated